createdAt,value
2019-03-21T00:00:49.297Z,64.68
2019-03-21T00:02:06.558Z,64.64
2019-03-21T00:03:12.460Z,62.88
2019-03-21T00:04:18.333Z,60.79
2019-03-21T00:05:26.006Z,59.77
2019-03-21T00:06:32.026Z,57.98
2019-03-21T00:07:38.567Z,57.13
2019-03-21T00:08:46.718Z,57.32
2019-03-21T00:10:23.401Z,58.14
2019-03-21T00:11:59.348Z,59.13
2019-03-21T00:13:05.802Z,60.56
2019-03-21T00:14:26.577Z,61.17
2019-03-21T00:15:49.213Z,62.04
2019-03-21T00:16:57.258Z,64.28
2019-03-21T00:18:12.839Z,65.14
2019-03-21T00:19:19.923Z,64.72
2019-03-21T00:20:26.383Z,62.82
2019-03-21T00:21:33.420Z,61.77
2019-03-21T00:22:40.303Z,60.33
2019-03-21T00:23:48.023Z,59.16
2019-03-21T00:24:55.095Z,57.45
2019-03-21T00:26:01.135Z,56.97
2019-03-21T00:27:07.286Z,57.40
2019-03-21T00:28:13.421Z,57.98
2019-03-21T00:29:20.384Z,58.91
2019-03-21T00:30:28.801Z,59.76
2019-03-21T00:31:35.616Z,60.95
2019-03-21T00:32:42.705Z,61.32
2019-03-21T00:33:48.688Z,62.33
2019-03-21T00:34:57.155Z,64.35
2019-03-21T00:36:03.490Z,65.53
2019-03-21T00:37:10.217Z,64.94
2019-03-21T00:38:16.946Z,63.17
2019-03-21T00:39:32.589Z,62.27
2019-03-21T00:40:49.303Z,60.95
2019-03-21T00:41:55.913Z,59.65
2019-03-21T00:43:06.936Z,58.31
2019-03-21T00:44:18.366Z,57.64
2019-03-21T00:45:24.693Z,58.07
2019-03-21T00:46:31.605Z,58.82
2019-03-21T00:47:39.768Z,59.53
2019-03-21T00:48:47.058Z,60.46
2019-03-21T00:49:54.347Z,61.47
2019-03-21T00:51:00.864Z,62.53
2019-03-21T00:52:07.777Z,65.11
2019-03-21T00:53:14.416Z,65.97
2019-03-21T00:54:21.426Z,65.34
2019-03-21T00:55:36.037Z,64.17
2019-03-21T00:56:42.220Z,62.96
2019-03-21T00:57:48.117Z,62.13
2019-03-21T00:58:56.517Z,61.40
2019-03-21T01:00:02.828Z,60.72
2019-03-21T01:01:12.068Z,60.15
2019-03-21T01:02:18.413Z,59.59
2019-03-21T01:03:25.240Z,58.80
2019-03-21T01:04:31.385Z,58.12
2019-03-21T01:05:38.377Z,58.89
2019-03-21T01:06:45.991Z,59.84
2019-03-21T01:07:52.707Z,61.39
2019-03-21T01:08:58.847Z,61.72
2019-03-21T01:10:11.685Z,63.23
2019-03-21T01:11:19.587Z,65.21
2019-03-21T01:12:28.019Z,66.44
2019-03-21T01:13:39.217Z,66.02
2019-03-21T01:14:47.827Z,65.15
2019-03-21T01:15:56.657Z,63.95
2019-03-21T01:17:03.926Z,63.12
2019-03-21T01:18:10.488Z,62.21
2019-03-21T01:19:16.998Z,61.49
2019-03-21T01:20:23.700Z,60.67
2019-03-21T01:21:31.848Z,60.30
2019-03-21T01:22:40.448Z,59.96
2019-03-21T01:23:47.047Z,59.53
2019-03-21T01:24:53.728Z,59.05
2019-03-21T01:26:09.155Z,58.81
2019-03-21T01:27:15.499Z,59.60
2019-03-21T01:28:21.438Z,60.91
2019-03-21T01:29:28.938Z,61.92
2019-03-21T01:30:35.078Z,63.00
2019-03-21T01:31:44.418Z,65.19
2019-03-21T01:32:50.507Z,66.49
2019-03-21T01:33:58.327Z,66.25
2019-03-21T01:35:05.228Z,65.90
2019-03-21T01:36:11.728Z,64.71
2019-03-21T01:37:17.675Z,64.05
2019-03-21T01:38:24.544Z,63.13
2019-03-21T01:39:30.721Z,62.37
2019-03-21T01:40:44.875Z,61.63
2019-03-21T01:42:12.056Z,61.50
2019-03-21T01:43:19.354Z,61.03
2019-03-21T01:44:28.056Z,60.49
2019-03-21T01:45:35.066Z,60.32
2019-03-21T01:46:42.694Z,60.22
2019-03-21T01:47:51.373Z,59.87
2019-03-21T01:48:57.808Z,59.61
2019-03-21T01:50:07.769Z,59.30
2019-03-21T01:51:14.489Z,58.84
2019-03-21T01:52:21.396Z,59.03
2019-03-21T01:53:30.634Z,59.82
2019-03-21T01:54:37.649Z,61.08
2019-03-21T01:55:45.328Z,63.05
2019-03-21T01:56:51.256Z,65.17
2019-03-21T01:57:57.322Z,66.01
2019-03-21T01:59:03.768Z,65.94
2019-03-21T02:00:31.419Z,65.50
2019-03-21T02:01:37.676Z,64.57
2019-03-21T02:02:43.966Z,63.63
2019-03-21T02:03:50.239Z,62.82
2019-03-21T02:04:56.770Z,62.40
2019-03-21T02:06:03.617Z,61.71
2019-03-21T02:07:10.120Z,61.31
2019-03-21T02:08:16.739Z,60.82
2019-03-21T02:09:23.159Z,60.55
2019-03-21T02:10:30.841Z,60.15
2019-03-21T02:11:38.803Z,59.78
2019-03-21T02:12:45.809Z,59.68
2019-03-21T02:13:54.129Z,59.60
2019-03-21T02:15:01.515Z,59.52
2019-03-21T02:16:07.801Z,58.89
2019-03-21T02:17:14.860Z,58.87
2019-03-21T02:18:21.264Z,59.79
2019-03-21T02:19:30.623Z,60.96
2019-03-21T02:20:39.598Z,62.39
2019-03-21T02:21:46.519Z,64.38
2019-03-21T02:22:53.590Z,65.87
2019-03-21T02:24:00.093Z,66.14
2019-03-21T02:25:12.080Z,65.54
2019-03-21T02:26:18.569Z,64.68
2019-03-21T02:27:25.030Z,64.02
2019-03-21T02:28:31.320Z,63.43
2019-03-21T02:29:37.781Z,62.75
2019-03-21T02:30:50.093Z,62.42
2019-03-21T02:31:57.691Z,61.91
2019-03-21T02:33:34.265Z,61.50
2019-03-21T02:34:40.332Z,61.37
2019-03-21T02:35:46.392Z,60.96
2019-03-21T02:36:52.312Z,60.48
2019-03-21T02:37:58.410Z,60.23
2019-03-21T02:39:06.131Z,60.16
2019-03-21T02:40:17.096Z,59.91
2019-03-21T02:41:25.705Z,60.02
2019-03-21T02:42:31.533Z,59.76
2019-03-21T02:43:39.080Z,59.57
2019-03-21T02:44:45.505Z,59.48
2019-03-21T02:45:53.261Z,58.93
2019-03-21T02:47:00.899Z,58.80
2019-03-21T02:48:07.134Z,59.64
2019-03-21T02:49:13.441Z,61.14
2019-03-21T02:50:25.190Z,62.36
2019-03-21T02:51:33.132Z,65.02
2019-03-21T02:52:39.979Z,65.54
2019-03-21T02:53:47.186Z,65.91
2019-03-21T02:54:53.901Z,65.57
2019-03-21T02:56:00.692Z,64.95
2019-03-21T02:57:06.852Z,64.41
2019-03-21T02:58:14.861Z,63.90
2019-03-21T02:59:21.942Z,63.30
2019-03-21T03:00:44.021Z,63.06
2019-03-21T03:01:49.944Z,62.77
2019-03-21T03:02:58.424Z,62.34
2019-03-21T03:04:05.153Z,61.77
2019-03-21T03:05:23.992Z,61.47
2019-03-21T03:06:32.291Z,61.48
2019-03-21T03:07:39.291Z,61.14
2019-03-21T03:08:45.691Z,60.84
2019-03-21T03:09:53.343Z,60.74
2019-03-21T03:11:19.253Z,60.72
2019-03-21T03:12:26.693Z,60.90
2019-03-21T03:13:33.654Z,60.78
2019-03-21T03:14:40.173Z,60.71
2019-03-21T03:15:46.663Z,60.51
2019-03-21T03:16:53.452Z,60.36
2019-03-21T03:18:01.859Z,60.29
2019-03-21T03:19:07.984Z,60.21
2019-03-21T03:20:18.133Z,60.16
2019-03-21T03:21:25.195Z,60.00
2019-03-21T03:22:33.198Z,59.87
2019-03-21T03:23:39.591Z,59.64
2019-03-21T03:24:46.838Z,59.56
2019-03-21T03:25:53.511Z,59.56
2019-03-21T03:26:59.826Z,59.55
2019-03-21T03:28:27.815Z,59.68
2019-03-21T03:29:34.193Z,59.87
2019-03-21T03:30:40.577Z,59.86
2019-03-21T03:31:48.254Z,59.89
2019-03-21T03:32:54.706Z,59.86
2019-03-21T03:34:02.827Z,59.93
2019-03-21T03:35:13.046Z,59.90
2019-03-21T03:36:20.933Z,59.92
2019-03-21T03:37:26.903Z,59.81
2019-03-21T03:38:33.303Z,59.81
2019-03-21T03:39:39.842Z,59.84
2019-03-21T03:41:01.782Z,59.82
2019-03-21T03:42:07.782Z,59.91
2019-03-21T03:43:16.123Z,59.88
2019-03-21T03:44:23.074Z,59.82
2019-03-21T03:45:38.576Z,59.87
2019-03-21T03:46:45.042Z,59.90
2019-03-21T03:47:51.225Z,59.97
2019-03-21T03:48:58.903Z,60.00
2019-03-21T03:50:08.967Z,60.07
2019-03-21T03:51:16.906Z,60.02
2019-03-21T03:52:25.814Z,59.85
2019-03-21T03:53:32.452Z,59.68
2019-03-21T03:54:38.960Z,59.57
2019-03-21T03:55:45.594Z,59.56
2019-03-21T03:56:52.383Z,59.48
2019-03-21T03:58:08.834Z,59.52
2019-03-21T03:59:16.794Z,59.66
2019-03-21T04:00:23.754Z,59.52
2019-03-21T04:01:29.889Z,59.39
2019-03-21T04:02:37.695Z,58.94
2019-03-21T04:03:46.414Z,59.14
2019-03-21T04:04:52.991Z,60.05
2019-03-21T04:05:59.504Z,61.45
2019-03-21T04:07:06.044Z,62.77
2019-03-21T04:08:13.157Z,65.04
2019-03-21T04:09:20.275Z,66.04
2019-03-21T04:10:33.177Z,65.87
2019-03-21T04:11:41.183Z,65.20
2019-03-21T04:12:49.094Z,64.43
2019-03-21T04:13:55.669Z,63.80
2019-03-21T04:15:02.764Z,63.18
2019-03-21T04:16:09.944Z,62.81
2019-03-21T04:17:16.559Z,62.57
2019-03-21T04:18:27.183Z,62.22
2019-03-21T04:19:36.034Z,61.95
2019-03-21T04:21:02.029Z,61.67
2019-03-21T04:22:08.324Z,61.38
2019-03-21T04:23:17.388Z,60.96
2019-03-21T04:24:24.339Z,60.61
2019-03-21T04:25:54.255Z,60.36
2019-03-21T04:27:11.279Z,60.15
2019-03-21T04:28:17.634Z,59.97
2019-03-21T04:29:24.326Z,59.82
2019-03-21T04:30:30.884Z,59.86
2019-03-21T04:31:37.953Z,59.71
2019-03-21T04:32:44.538Z,59.70
2019-03-21T04:33:54.305Z,59.61
2019-03-21T04:35:00.694Z,59.37
2019-03-21T04:36:07.314Z,58.85
2019-03-21T04:37:15.355Z,59.01
2019-03-21T04:38:23.375Z,59.64
2019-03-21T04:39:31.035Z,60.75
2019-03-21T04:40:37.175Z,62.52
2019-03-21T04:41:46.109Z,64.16
2019-03-21T04:42:54.135Z,65.68
2019-03-21T04:44:02.791Z,65.64
2019-03-21T04:45:22.685Z,65.06
2019-03-21T04:46:29.245Z,64.42
2019-03-21T04:47:35.281Z,63.60
2019-03-21T04:48:41.750Z,63.09
2019-03-21T04:49:48.495Z,62.77
2019-03-21T04:50:55.372Z,62.38
2019-03-21T04:52:03.404Z,61.90
2019-03-21T04:53:09.654Z,61.36
2019-03-21T04:54:42.297Z,61.02
2019-03-21T04:56:00.355Z,60.61
2019-03-21T04:57:20.138Z,60.18
2019-03-21T04:58:26.215Z,59.94
2019-03-21T05:02:09.916Z,59.93
2019-03-21T05:03:25.087Z,60.02
2019-03-21T05:05:00.236Z,59.78
2019-03-21T05:08:36.016Z,59.70
2019-03-21T05:10:06.746Z,59.51
2019-03-21T05:11:39.896Z,59.51
2019-03-21T05:12:46.482Z,59.24
2019-03-21T05:13:52.983Z,58.58
2019-03-21T05:14:59.407Z,58.78
2019-03-21T05:16:15.039Z,59.48
2019-03-21T05:17:19.264Z,60.78
2019-03-21T05:18:33.785Z,62.04
2019-03-21T05:19:40.295Z,63.96
2019-03-21T05:21:20.328Z,65.38
2019-03-21T05:22:42.243Z,65.35
2019-03-21T05:23:47.903Z,64.74
2019-03-21T05:24:59.577Z,63.78
2019-03-21T05:26:07.357Z,63.14
2019-03-21T05:27:15.117Z,62.57
2019-03-21T05:28:22.796Z,62.04
2019-03-21T05:29:36.619Z,61.52
2019-03-21T05:33:03.527Z,60.69
2019-03-21T05:34:18.357Z,60.11
2019-03-21T05:35:26.917Z,59.81
2019-03-21T05:36:33.087Z,59.55
2019-03-21T05:37:40.885Z,59.16
2019-03-21T05:38:47.376Z,58.51
2019-03-21T05:39:54.496Z,58.69
2019-03-21T05:41:01.205Z,59.42
2019-03-21T05:42:09.937Z,60.61
2019-03-21T05:43:39.074Z,61.93
2019-03-21T05:44:45.704Z,63.30
2019-03-21T05:45:53.346Z,65.60
2019-03-21T05:47:01.861Z,66.80
2019-03-21T05:48:08.296Z,66.63
2019-03-21T05:50:33.477Z,65.29
2019-03-21T05:51:40.857Z,64.35
2019-03-21T05:52:49.107Z,63.62
2019-03-21T05:53:57.248Z,62.90
2019-03-21T05:55:04.098Z,62.04
2019-03-21T05:56:11.996Z,61.32
2019-03-21T05:57:19.705Z,60.74
2019-03-21T05:58:25.837Z,60.25
2019-03-21T05:59:31.968Z,59.94
2019-03-21T06:00:45.326Z,59.76
2019-03-21T06:01:51.938Z,59.11
2019-03-21T06:02:58.647Z,58.64
2019-03-21T06:04:04.658Z,58.88
2019-03-21T06:05:10.736Z,59.82
2019-03-21T06:06:21.538Z,60.87
2019-03-21T06:07:32.349Z,61.95
2019-03-21T06:08:41.228Z,63.34
2019-03-21T06:09:47.805Z,65.66
2019-03-21T06:10:54.645Z,66.10
2019-03-21T06:12:03.986Z,65.68
2019-03-21T06:13:10.998Z,64.64
2019-03-21T06:14:19.798Z,63.83
2019-03-21T06:15:35.178Z,63.15
2019-03-21T06:16:43.624Z,62.69
2019-03-21T06:18:20.605Z,62.32
2019-03-21T06:19:50.667Z,61.57
2019-03-21T06:21:04.433Z,60.91
2019-03-21T06:22:28.588Z,60.19
2019-03-21T06:24:03.909Z,59.64
2019-03-21T06:25:45.386Z,59.16
2019-03-21T06:27:14.379Z,58.13
2019-03-21T06:28:23.228Z,58.88
2019-03-21T06:29:30.259Z,59.91
2019-03-21T06:30:38.767Z,61.25
2019-03-21T06:31:46.845Z,62.62
2019-03-21T06:32:53.366Z,64.17
2019-03-21T06:34:01.662Z,64.79
2019-03-21T06:35:13.114Z,64.99
2019-03-21T06:36:19.318Z,64.57
2019-03-21T06:37:28.467Z,63.52
2019-03-21T06:38:33.968Z,62.59
2019-03-21T06:39:40.753Z,61.77
2019-03-21T06:40:47.149Z,60.99
2019-03-21T06:41:53.818Z,60.48
2019-03-21T06:43:03.419Z,59.93
2019-03-21T06:44:10.749Z,59.51
2019-03-21T06:45:20.579Z,58.48
2019-03-21T06:46:28.879Z,57.93
2019-03-21T06:47:35.757Z,58.45
2019-03-21T06:48:42.519Z,59.31
2019-03-21T06:49:49.099Z,60.14
2019-03-21T06:50:56.051Z,61.09
2019-03-21T06:52:02.700Z,61.95
2019-03-21T06:53:09.520Z,62.92
2019-03-21T06:54:16.693Z,64.34
2019-03-21T06:55:23.272Z,64.79
2019-03-21T06:56:29.528Z,63.95
2019-03-21T06:57:36.295Z,62.40
2019-03-21T06:58:43.931Z,61.29
2019-03-21T06:59:49.758Z,59.46
2019-03-21T07:00:55.771Z,58.32
2019-03-21T07:02:01.841Z,57.79
2019-03-21T07:03:10.730Z,58.35
2019-03-21T07:04:18.657Z,59.30
2019-03-21T07:05:26.837Z,60.19
2019-03-21T07:06:33.269Z,61.51
2019-03-21T07:07:39.458Z,61.69
2019-03-21T07:08:47.090Z,62.90
2019-03-21T07:09:53.630Z,63.94
2019-03-21T07:11:00.408Z,64.53
2019-03-21T07:12:06.991Z,63.97
2019-03-21T07:13:15.125Z,63.18
2019-03-21T07:14:21.911Z,61.21
2019-03-21T07:15:28.149Z,60.58
2019-03-21T07:16:36.111Z,59.06
2019-03-21T07:17:44.428Z,58.40
2019-03-21T07:18:50.941Z,57.99
2019-03-21T07:19:58.381Z,58.28
2019-03-21T07:21:05.501Z,58.66
2019-03-21T07:22:13.982Z,59.88
2019-03-21T07:23:21.023Z,60.52
2019-03-21T07:24:27.451Z,61.47
2019-03-21T07:25:36.671Z,62.60
2019-03-21T07:26:43.422Z,63.66
2019-03-21T07:27:51.520Z,63.97
2019-03-21T07:28:57.605Z,63.09
2019-03-21T07:30:05.104Z,61.91
2019-03-21T07:31:11.437Z,60.91
2019-03-21T07:32:17.589Z,59.90
2019-03-21T07:33:23.801Z,58.87
2019-03-21T07:34:29.842Z,57.53
2019-03-21T07:35:37.541Z,57.24
2019-03-21T07:36:43.650Z,57.79
2019-03-21T07:37:49.564Z,58.42
2019-03-21T07:38:57.232Z,58.93
2019-03-21T07:40:03.199Z,59.96
2019-03-21T07:41:10.553Z,60.33
2019-03-21T07:42:17.871Z,61.03
2019-03-21T07:43:25.711Z,61.95
2019-03-21T07:44:32.802Z,62.81
2019-03-21T07:45:40.103Z,63.49
2019-03-21T07:46:47.355Z,62.93
2019-03-21T07:47:54.103Z,62.39
2019-03-21T07:49:00.919Z,61.67
2019-03-21T07:50:12.553Z,60.48
2019-03-21T07:51:19.061Z,59.23
2019-03-21T07:52:26.203Z,57.85
2019-03-21T07:53:33.432Z,57.35
2019-03-21T07:54:40.589Z,57.56
2019-03-21T07:55:47.724Z,58.61
2019-03-21T07:56:54.423Z,58.37
2019-03-21T07:58:02.303Z,59.51
2019-03-21T07:59:08.823Z,59.51
2019-03-21T08:00:19.926Z,60.42
2019-03-21T08:01:26.080Z,61.28
2019-03-21T08:02:34.074Z,61.83
2019-03-21T08:03:40.114Z,61.79
2019-03-21T08:04:46.255Z,62.01
2019-03-21T08:05:52.203Z,62.18
2019-03-21T08:06:58.123Z,62.84
2019-03-21T08:08:03.960Z,63.00
2019-03-21T08:09:10.113Z,63.23
2019-03-21T08:10:16.128Z,61.91
2019-03-21T08:11:23.784Z,59.57
2019-03-21T08:12:30.723Z,57.99
2019-03-21T08:13:37.974Z,56.72
2019-03-21T08:14:45.234Z,56.70
2019-03-21T08:15:51.955Z,57.26
2019-03-21T08:16:59.645Z,57.85
2019-03-21T08:18:05.983Z,58.93
2019-03-21T08:19:13.904Z,59.51
2019-03-21T08:20:21.063Z,59.71
2019-03-21T08:21:29.346Z,60.63
2019-03-21T08:22:36.304Z,60.57
2019-03-21T08:23:44.072Z,61.19
2019-03-21T08:24:52.454Z,61.85
2019-03-21T08:26:00.233Z,62.55
2019-03-21T08:27:07.083Z,63.71
2019-03-21T08:28:13.102Z,63.79
2019-03-21T08:29:19.923Z,63.00
2019-03-21T08:30:33.342Z,60.13
2019-03-21T08:31:39.457Z,58.05
2019-03-21T08:32:46.369Z,56.12
2019-03-21T08:33:52.246Z,55.29
2019-03-21T08:34:58.143Z,55.56
2019-03-21T08:36:04.404Z,55.33
2019-03-21T08:37:10.346Z,55.80
2019-03-21T08:38:16.312Z,56.87
2019-03-21T08:39:22.344Z,57.25
2019-03-21T08:40:28.411Z,57.62
2019-03-21T08:41:35.024Z,57.80
2019-03-21T08:42:41.031Z,58.79
2019-03-21T08:43:48.938Z,59.54
2019-03-21T08:44:55.865Z,60.56
2019-03-21T08:46:04.429Z,61.02
2019-03-21T08:47:11.016Z,62.23
2019-03-21T08:48:17.082Z,62.52
2019-03-21T08:49:23.245Z,63.97
2019-03-21T08:50:31.025Z,64.31
2019-03-21T08:51:37.464Z,62.99
2019-03-21T08:52:43.663Z,61.09
2019-03-21T08:53:49.722Z,59.44
2019-03-21T08:54:55.656Z,58.31
2019-03-21T08:56:02.065Z,57.09
2019-03-21T08:57:08.415Z,57.28
2019-03-21T08:58:14.393Z,57.69
2019-03-21T08:59:22.020Z,58.53
2019-03-21T09:00:34.009Z,58.89
2019-03-21T09:01:35.625Z,59.63
2019-03-21T09:02:41.639Z,60.26
2019-03-21T09:03:47.816Z,60.46
2019-03-21T09:04:53.795Z,61.14
2019-03-21T09:05:59.691Z,61.58
2019-03-21T09:07:05.582Z,61.80
2019-03-21T09:08:11.642Z,61.70
2019-03-21T09:09:17.517Z,61.90
2019-03-21T09:10:23.473Z,61.35
2019-03-21T09:11:29.373Z,61.50
2019-03-21T09:12:35.329Z,61.18
2019-03-21T09:13:41.262Z,61.53
2019-03-21T09:14:47.747Z,62.00
2019-03-21T09:15:53.694Z,62.22
2019-03-21T09:17:00.180Z,62.45
2019-03-21T09:18:06.600Z,63.44
2019-03-21T09:19:12.777Z,64.18
2019-03-21T09:20:19.426Z,62.37
2019-03-21T09:21:26.804Z,61.20
2019-03-21T09:22:33.374Z,59.15
2019-03-21T09:23:40.566Z,57.32
2019-03-21T09:24:47.275Z,56.36
2019-03-21T09:25:56.407Z,55.56
2019-03-21T09:27:04.993Z,56.11
2019-03-21T09:28:14.352Z,56.40
2019-03-21T09:29:20.685Z,56.66
2019-03-21T09:30:27.096Z,57.35
2019-03-21T09:31:33.195Z,58.44
2019-03-21T09:32:39.032Z,59.11
2019-03-21T09:33:44.965Z,59.99
2019-03-21T09:34:50.784Z,60.53
2019-03-21T09:35:56.668Z,60.17
2019-03-21T09:37:04.067Z,60.26
2019-03-21T09:38:10.145Z,60.45
2019-03-21T09:39:16.086Z,60.82
2019-03-21T09:40:22.266Z,60.78
2019-03-21T09:41:29.116Z,61.04
2019-03-21T09:42:35.467Z,61.64
2019-03-21T09:43:41.995Z,61.70
2019-03-21T09:44:49.793Z,61.83
2019-03-21T09:45:56.706Z,62.03
2019-03-21T09:47:02.715Z,62.25
2019-03-21T09:48:09.438Z,63.02
2019-03-21T09:49:15.581Z,64.49
2019-03-21T09:50:31.147Z,64.21
2019-03-21T09:51:38.457Z,62.90
2019-03-21T09:52:44.362Z,60.69
2019-03-21T09:53:52.346Z,58.65
2019-03-21T09:54:58.189Z,55.32
2019-03-21T09:56:04.028Z,54.61
2019-03-21T09:57:10.467Z,54.62
2019-03-21T09:58:18.598Z,55.02
2019-03-21T09:59:24.498Z,55.63
2019-03-21T10:00:37.313Z,56.08
2019-03-21T10:01:43.132Z,55.90
2019-03-21T10:02:49.237Z,56.76
2019-03-21T10:03:55.267Z,56.92
2019-03-21T10:05:02.747Z,57.20
2019-03-21T10:06:08.630Z,57.41
2019-03-21T10:07:16.177Z,58.15
2019-03-21T10:08:22.527Z,57.81
2019-03-21T10:09:28.537Z,58.47
2019-03-21T10:10:35.779Z,58.50
2019-03-21T10:11:41.704Z,58.05
2019-03-21T10:12:47.728Z,58.54
2019-03-21T10:13:54.354Z,58.12
2019-03-21T10:15:01.083Z,57.91
2019-03-21T10:16:07.164Z,57.91
2019-03-21T10:17:14.528Z,58.63
2019-03-21T10:18:21.161Z,58.99
2019-03-21T10:19:29.350Z,58.91
2019-03-21T10:20:37.468Z,58.87
2019-03-21T10:21:45.699Z,59.58
2019-03-21T10:22:52.355Z,60.13
2019-03-21T10:23:58.439Z,60.39
2019-03-21T10:25:07.044Z,60.72
2019-03-21T10:27:36.598Z,61.13
2019-03-21T10:28:42.556Z,60.79
2019-03-21T10:29:48.328Z,60.96
2019-03-21T10:30:54.261Z,61.28
2019-03-21T10:32:00.393Z,60.23
2019-03-21T10:33:08.135Z,60.87
2019-03-21T10:34:14.142Z,60.50
2019-03-21T10:35:21.895Z,60.86
2019-03-21T10:36:27.773Z,60.88
2019-03-21T10:37:35.234Z,61.00
2019-03-21T10:38:41.051Z,61.41
2019-03-21T10:39:46.955Z,61.25
2019-03-21T10:40:53.667Z,61.92
2019-03-21T10:42:00.759Z,61.20
2019-03-21T10:43:07.262Z,61.34
2019-03-21T10:44:13.550Z,60.83
2019-03-21T10:45:19.584Z,61.03
2019-03-21T10:46:26.939Z,61.25
2019-03-21T10:47:33.399Z,61.13
2019-03-21T10:48:39.698Z,60.71
2019-03-21T10:49:46.367Z,61.07
2019-03-21T10:50:53.349Z,61.01
2019-03-21T10:52:00.079Z,61.26
2019-03-21T10:53:07.730Z,61.01
2019-03-21T10:54:13.930Z,61.07
2019-03-21T10:55:19.765Z,61.21
2019-03-21T10:56:26.879Z,61.33
2019-03-21T10:57:34.476Z,60.75
2019-03-21T10:58:40.939Z,60.24
2019-03-21T10:59:46.885Z,59.96
2019-03-21T11:00:55.949Z,59.96
2019-03-21T11:02:07.141Z,60.36
2019-03-21T11:03:11.014Z,60.86
2019-03-21T11:04:16.869Z,60.23
2019-03-21T11:05:23.292Z,59.95
2019-03-21T11:06:29.364Z,59.77
2019-03-21T11:07:35.483Z,59.72
2019-03-21T11:08:41.564Z,59.93
2019-03-21T11:09:47.557Z,59.97
2019-03-21T11:10:53.393Z,59.93
2019-03-21T11:12:00.440Z,59.06
2019-03-21T11:13:07.382Z,58.54
2019-03-21T11:14:13.523Z,58.31
2019-03-21T11:15:19.397Z,58.44
2019-03-21T11:16:25.225Z,59.89
2019-03-21T11:17:31.178Z,59.38
2019-03-21T11:18:37.020Z,59.54
2019-03-21T11:19:43.071Z,58.66
2019-03-21T11:20:48.944Z,59.07
2019-03-21T11:22:05.773Z,58.13
2019-03-21T11:23:03.456Z,58.72
2019-03-21T11:24:09.400Z,58.28
2019-03-21T11:25:15.225Z,57.97
2019-03-21T11:26:21.118Z,58.77
2019-03-21T11:27:26.949Z,59.63
2019-03-21T11:28:32.738Z,59.89
2019-03-21T11:29:38.587Z,59.88
2019-03-21T11:30:44.991Z,59.51
2019-03-21T11:31:50.869Z,59.12
2019-03-21T11:32:56.677Z,59.07
2019-03-21T11:34:02.624Z,58.92
2019-03-21T11:35:08.468Z,58.73
2019-03-21T11:36:15.348Z,58.69
2019-03-21T11:37:21.207Z,58.53
2019-03-21T11:38:27.204Z,58.82
2019-03-21T11:39:36.070Z,58.95
2019-03-21T11:40:42.541Z,58.65
2019-03-21T11:41:49.291Z,58.91
2019-03-21T11:42:55.742Z,58.54
2019-03-21T11:44:02.671Z,57.79
2019-03-21T11:45:09.929Z,56.45
2019-03-21T11:46:16.239Z,56.63
2019-03-21T11:47:24.103Z,56.16
2019-03-21T11:48:32.834Z,56.98
2019-03-21T11:49:39.050Z,56.19
2019-03-21T11:50:44.967Z,55.87
2019-03-21T11:52:18.086Z,55.53
2019-03-21T11:53:21.192Z,55.11
2019-03-21T11:54:27.099Z,55.88
2019-03-21T11:55:33.772Z,56.02
2019-03-21T11:56:40.772Z,55.51
2019-03-21T11:57:47.184Z,54.98
2019-03-21T11:58:53.045Z,55.49
2019-03-21T11:59:58.869Z,55.49
2019-03-21T12:01:06.392Z,55.98
2019-03-21T12:02:12.224Z,55.63
2019-03-21T12:03:18.100Z,55.58
2019-03-21T12:04:23.911Z,56.41
2019-03-21T12:05:29.870Z,55.67
2019-03-21T12:06:35.996Z,55.65
2019-03-21T12:07:41.897Z,56.23
2019-03-21T12:08:48.119Z,55.71
2019-03-21T12:09:54.143Z,55.72
2019-03-21T12:11:00.016Z,55.96
2019-03-21T12:12:05.834Z,55.01
2019-03-21T12:13:13.636Z,55.32
2019-03-21T12:14:19.447Z,54.54
2019-03-21T12:15:25.420Z,54.50
2019-03-21T12:16:31.305Z,54.87
2019-03-21T12:17:37.944Z,54.39
2019-03-21T12:18:43.972Z,53.97
2019-03-21T12:19:50.885Z,54.45
2019-03-21T12:20:57.713Z,54.85
2019-03-21T12:22:04.969Z,55.44
2019-03-21T12:23:11.914Z,55.70
2019-03-21T12:24:18.512Z,56.06
2019-03-21T12:25:25.153Z,56.01
2019-03-21T12:26:31.311Z,56.33
2019-03-21T12:27:38.794Z,56.43
2019-03-21T12:28:45.926Z,57.05
2019-03-21T12:29:51.863Z,56.85
2019-03-21T12:30:57.889Z,57.33
2019-03-21T12:32:03.839Z,57.66
2019-03-21T12:33:09.718Z,57.05
2019-03-21T12:34:15.618Z,56.66
2019-03-21T12:35:21.493Z,57.04
2019-03-21T12:36:27.379Z,56.87
2019-03-21T12:37:33.170Z,56.61
2019-03-21T12:38:39.100Z,56.50
2019-03-21T12:39:44.923Z,56.95
2019-03-21T12:40:50.875Z,57.38
2019-03-21T12:41:57.739Z,57.34
2019-03-21T12:43:03.588Z,57.04
2019-03-21T12:44:09.433Z,56.98
2019-03-21T12:45:15.322Z,57.14
2019-03-21T12:46:21.159Z,56.71
2019-03-21T12:47:31.402Z,56.61
2019-03-21T12:48:34.683Z,56.37
2019-03-21T12:49:40.578Z,56.74
2019-03-21T12:50:47.889Z,55.70
2019-03-21T12:51:54.241Z,56.44
2019-03-21T12:53:00.882Z,56.52
2019-03-21T12:54:07.412Z,55.90
2019-03-21T12:55:14.004Z,55.50
2019-03-21T12:56:20.659Z,55.37
2019-03-21T12:57:26.718Z,55.88
2019-03-21T12:58:33.282Z,55.45
2019-03-21T12:59:39.336Z,55.28
2019-03-21T13:00:45.114Z,55.54
2019-03-21T13:01:51.071Z,55.90
2019-03-21T13:02:57.112Z,55.67
2019-03-21T13:04:03.000Z,55.21
2019-03-21T13:05:10.045Z,55.13
2019-03-21T13:06:15.892Z,55.47
2019-03-21T13:07:22.058Z,56.26
2019-03-21T13:08:33.743Z,56.04
2019-03-21T13:09:35.884Z,56.42
2019-03-21T13:10:41.723Z,56.19
2019-03-21T13:11:48.243Z,55.84
2019-03-21T13:12:54.564Z,56.15
2019-03-21T13:14:00.600Z,56.34
2019-03-21T13:15:07.874Z,55.78
2019-03-21T13:16:14.381Z,55.94
2019-03-21T13:17:21.754Z,56.22
2019-03-21T13:18:27.733Z,57.00
2019-03-21T13:19:34.692Z,56.81
2019-03-21T13:20:41.685Z,56.84
2019-03-21T13:21:48.160Z,56.82
2019-03-21T13:22:54.496Z,57.25
2019-03-21T13:24:01.622Z,56.90
2019-03-21T13:25:08.031Z,56.85
2019-03-21T13:26:13.785Z,56.48
2019-03-21T13:27:20.200Z,56.42
2019-03-21T13:28:26.426Z,56.09
2019-03-21T13:29:32.254Z,56.28
2019-03-21T13:30:38.114Z,56.04
2019-03-21T13:31:44.117Z,56.13
2019-03-21T13:32:50.051Z,56.55
2019-03-21T13:33:56.035Z,56.38
2019-03-21T13:35:02.042Z,56.51
2019-03-21T13:36:08.081Z,56.47
2019-03-21T13:37:14.126Z,56.17
2019-03-21T13:38:20.049Z,56.48
2019-03-21T13:39:25.913Z,56.30
2019-03-21T13:40:31.763Z,56.30
2019-03-21T13:41:37.999Z,56.61
2019-03-21T13:42:46.275Z,56.55
2019-03-21T13:43:52.215Z,56.53
2019-03-21T13:44:58.665Z,56.72
2019-03-21T13:46:05.056Z,57.05
2019-03-21T13:47:11.504Z,56.93
2019-03-21T13:48:17.482Z,56.98
2019-03-21T13:49:25.726Z,57.33
2019-03-21T13:50:31.806Z,56.99
2019-03-21T13:51:37.705Z,57.07
2019-03-21T13:52:43.552Z,56.89
2019-03-21T13:53:49.837Z,56.90
2019-03-21T13:54:56.635Z,56.77
2019-03-21T13:56:03.565Z,57.37
2019-03-21T13:57:12.587Z,57.65
2019-03-21T13:58:18.931Z,57.78
2019-03-21T13:59:24.846Z,58.02
2019-03-21T14:00:30.636Z,58.21
2019-03-21T14:01:36.570Z,58.25
2019-03-21T14:02:42.384Z,58.36
2019-03-21T14:03:48.321Z,58.57
2019-03-21T14:05:15.056Z,58.63
2019-03-21T14:06:22.642Z,58.78
2019-03-21T14:07:28.536Z,58.86
2019-03-21T14:08:34.774Z,59.42
2019-03-21T14:09:40.835Z,59.18
2019-03-21T14:10:47.083Z,59.30
2019-03-21T14:11:52.904Z,59.24
2019-03-21T14:13:00.251Z,59.66
2019-03-21T14:14:07.883Z,59.63
2019-03-21T14:15:17.890Z,59.59
2019-03-21T14:16:24.237Z,59.76
2019-03-21T14:17:30.656Z,59.85
2019-03-21T14:18:36.964Z,60.26
2019-03-21T14:19:43.798Z,60.00
2019-03-21T14:20:49.933Z,60.12
2019-03-21T14:22:00.506Z,60.22
2019-03-21T14:23:17.598Z,60.14
2019-03-21T14:24:27.774Z,60.90
2019-03-21T14:25:39.067Z,60.85
2019-03-21T14:27:10.024Z,60.55
2019-03-21T14:28:38.328Z,61.04
2019-03-21T14:30:00.878Z,60.09
2019-03-21T14:31:02.692Z,60.07
2019-03-21T14:32:08.731Z,60.24
2019-03-21T14:33:25.133Z,60.34
2019-03-21T14:34:38.499Z,60.66
2019-03-21T14:35:44.376Z,61.02
2019-03-21T14:36:50.417Z,60.86
2019-03-21T14:37:56.477Z,60.73
2019-03-21T14:39:05.727Z,60.51
2019-03-21T14:40:14.317Z,60.80
2019-03-21T14:41:20.384Z,60.79
2019-03-21T14:42:26.361Z,60.81
2019-03-21T14:43:33.394Z,60.61
2019-03-21T14:45:00.618Z,60.62
2019-03-21T14:46:07.047Z,61.01
2019-03-21T14:47:14.385Z,61.19
2019-03-21T14:48:20.877Z,61.02